Time;durP1;ratioP1;P1;durP2;ratioP2;P2;SDS_P1;SDS_P2;PMS_P1;PMS_P2;Temp;Humidity;BMP_temperature;BMP_pressure;BME280_temperature;BME280_humidity;BME280_pressure;Samples;Min_cycle;Max_cycle;Signal;HPM_P1;HPM_P2
2022/07/15 00:00:40;;;;;;;2.72;2.40;;;23.70;63.20;;;;;;5113998;28;20031;-72
2022/07/15 00:03:06;;;;;;;3.10;2.28;;;23.70;63.30;;;;;;5115299;28;20034;-71
2022/07/15 00:05:32;;;;;;;5.38;2.50;;;23.70;63.00;;;;;;5115535;27;20024;-72
2022/07/15 00:08:00;;;;;;;2.50;2.30;;;23.70;63.50;;;;;;5115514;28;20085;-73
2022/07/15 00:10:27;;;;;;;3.33;2.47;;;23.70;63.40;;;;;;5115436;28;20483;-77
2022/07/15 00:12:55;;;;;;;4.88;2.60;;;23.70;63.50;;;;;;5115410;28;20023;-74
2022/07/15 00:15:27;;;;;;;6.20;2.58;;;23.70;63.50;;;;;;5114046;28;20388;-75
2022/07/15 00:17:54;;;;;;;3.15;2.40;;;23.70;63.60;;;;;;5115304;28;20039;-78
2022/07/15 00:20:22;;;;;;;4.28;2.30;;;23.70;63.80;;;;;;5114947;28;20084;-72
2022/07/15 00:22:48;;;;;;;3.40;2.38;;;23.70;64.10;;;;;;5113666;28;20024;-72
2022/07/15 00:25:15;;;;;;;3.05;2.65;;;23.70;64.00;;;;;;5113366;28;20531;-74
2022/07/15 00:28:11;;;;;;;8.25;2.63;;;23.70;63.70;;;;;;5094612;28;20565;-74
2022/07/15 00:30:40;;;;;;;3.05;2.67;;;23.60;63.00;;;;;;5035528;28;20429;-76
2022/07/15 00:33:06;;;;;;;3.03;2.30;;;23.60;63.90;;;;;;5036771;28;20029;-70
2022/07/15 00:35:33;;;;;;;3.00;2.30;;;23.60;64.10;;;;;;5055336;28;20125;-77
2022/07/15 00:37:59;;;;;;;5.15;2.58;;;23.60;65.20;;;;;;5055345;28;20029;-75
2022/07/15 00:40:25;;;;;;;2.72;2.17;;;23.60;64.80;;;;;;5072039;28;20527;-72
2022/07/15 00:42:51;;;;;;;3.60;2.65;;;23.60;64.80;;;;;;5071955;28;20029;-72
2022/07/15 00:45:19;;;;;;;4.25;2.55;;;23.70;65.30;;;;;;5072009;28;20518;-74
2022/07/15 00:47:53;;;;;;;4.85;2.70;;;23.60;65.00;;;;;;5071911;28;20063;-74
2022/07/15 00:50:21;;;;;;;4.35;2.70;;;23.70;65.30;;;;;;5071887;28;20466;-71
2022/07/15 00:53:07;;;;;;;2.47;2.25;;;23.70;65.50;;;;;;5041768;28;20031;-71
2022/07/15 00:55:41;;;;;;;4.88;2.28;;;23.60;64.90;;;;;;5051772;28;20385;-73
2022/07/15 00:58:08;;;;;;;3.50;2.60;;;23.60;64.80;;;;;;5035074;28;20029;-72
2022/07/15 01:00:34;;;;;;;6.13;2.58;;;23.60;64.80;;;;;;5034988;28;20212;-74
2022/07/15 01:03:00;;;;;;;3.70;2.55;;;23.60;64.70;;;;;;5051544;28;20120;-75
2022/07/15 01:05:27;;;;;;;7.88;3.10;;;23.60;64.80;;;;;;5051536;28;20501;-72
2022/07/15 01:07:53;;;;;;;4.22;2.58;;;23.50;63.90;;;;;;5084995;28;20036;-73
2022/07/15 01:10:21;;;;;;;7.35;3.67;;;23.50;63.30;;;;;;5093805;28;20020;-71
2022/07/15 01:12:49;;;;;;;2.58;2.35;;;23.40;63.70;;;;;;5093727;28;20427;-71
2022/07/15 01:15:15;;;;;;;11.45;3.35;;;23.30;63.90;;;;;;5093707;28;20054;-71
2022/07/15 01:17:41;;;;;;;5.28;3.15;;;23.30;64.00;;;;;;5093693;28;20024;-72
2022/07/15 01:20:08;;;;;;;4.75;2.80;;;23.20;64.00;;;;;;5093451;28;20048;-70
2022/07/15 01:22:34;;;;;;;7.38;3.40;;;23.10;64.40;;;;;;5094894;28;20035;-76
2022/07/15 01:25:00;;;;;;;5.32;2.83;;;23.10;64.30;;;;;;5093277;28;20020;-75
2022/07/15 01:27:27;;;;;;;4.57;3.78;;;23.00;64.70;;;;;;5093498;28;20540;-70
2022/07/15 01:29:53;;;;;;;5.07;3.55;;;23.00;65.00;;;;;;5093396;28;20054;-70
2022/07/15 01:32:19;;;;;;;5.13;4.03;;;22.90;64.60;;;;;;5093327;28;20016;-76
2022/07/15 01:34:48;;;;;;;6.60;4.25;;;22.80;64.70;;;;;;5093329;28;20027;-74
2022/07/15 01:37:14;;;;;;;5.07;3.83;;;22.80;64.90;;;;;;5093254;28;20020;-75
2022/07/15 01:39:40;;;;;;;6.22;4.07;;;22.70;65.00;;;;;;5093350;28;20028;-73
2022/07/15 01:42:06;;;;;;;5.57;4.05;;;22.70;64.80;;;;;;5093472;28;20046;-78
2022/07/15 01:44:32;;;;;;;10.43;6.32;;;22.60;65.20;;;;;;5093245;28;20034;-75
2022/07/15 01:46:58;;;;;;;4.72;3.15;;;22.60;65.50;;;;;;5093326;28;20473;-74
2022/07/15 01:49:29;;;;;;;8.38;3.83;;;22.50;65.70;;;;;;5093472;28;20069;-75
2022/07/15 01:51:56;;;;;;;4.38;3.17;;;22.50;66.10;;;;;;5095385;28;20486;-75
2022/07/15 01:54:26;;;;;;;4.25;3.28;;;22.50;67.30;;;;;;5113565;28;20052;-74
2022/07/15 01:56:53;;;;;;;5.70;3.10;;;22.50;66.60;;;;;;5113435;28;20067;-75
2022/07/15 01:59:23;;;;;;;5.07;3.25;;;22.40;66.30;;;;;;5113539;28;20023;-73
2022/07/15 02:01:54;;;;;;;10.52;4.28;;;22.40;66.60;;;;;;5113513;28;20016;-76
2022/07/15 02:04:21;;;;;;;4.50;3.60;;;22.40;66.80;;;;;;5113727;28;20042;-78
2022/07/15 02:06:47;;;;;;;5.75;3.90;;;22.40;66.80;;;;;;5113465;28;20076;-73
2022/07/15 02:09:13;;;;;;;6.55;3.55;;;22.30;66.50;;;;;;5113421;28;20055;-75
2022/07/15 02:11:40;;;;;;;9.35;3.90;;;22.30;66.20;;;;;;5113414;28;20073;-74
2022/07/15 02:14:06;;;;;;;14.15;4.80;;;22.30;66.40;;;;;;5113406;28;20536;-72
2022/07/15 02:16:33;;;;;;;6.57;3.90;;;22.20;66.70;;;;;;5113338;28;20476;-77
2022/07/15 02:19:00;;;;;;;8.48;4.30;;;22.20;66.90;;;;;;5113377;28;20080;-73
2022/07/15 02:21:26;;;;;;;6.38;3.45;;;22.20;67.00;;;;;;5113142;28;20434;-76
2022/07/15 02:23:53;;;;;;;7.90;4.60;;;22.20;67.10;;;;;;5096458;28;20391;-73
2022/07/15 02:26:19;;;;;;;5.60;4.53;;;22.20;67.10;;;;;;5113229;28;20027;-77
2022/07/15 02:28:45;;;;;;;10.73;4.45;;;22.10;67.00;;;;;;5113230;28;20024;-72
2022/07/15 02:31:12;;;;;;;5.38;4.72;;;22.10;67.00;;;;;;5113185;28;20054;-74
2022/07/15 02:33:38;;;;;;;4.85;4.35;;;22.10;67.00;;;;;;5113164;28;20039;-76
2022/07/15 02:36:04;;;;;;;6.55;4.68;;;22.10;66.90;;;;;;5113153;28;20027;-74
2022/07/15 02:38:30;;;;;;;7.90;5.10;;;22.00;67.00;;;;;;5113099;28;20024;-73
2022/07/15 02:40:56;;;;;;;6.82;4.63;;;22.00;66.90;;;;;;5111436;28;20031;-73
2022/07/15 02:43:22;;;;;;;7.32;4.53;;;22.00;67.00;;;;;;5112994;28;20064;-71
2022/07/15 02:45:48;;;;;;;7.55;4.97;;;22.00;66.80;;;;;;5116235;28;20031;-76
2022/07/15 02:48:15;;;;;;;9.18;5.40;;;22.00;67.10;;;;;;5115652;28;20024;-77
2022/07/15 02:50:41;;;;;;;7.43;5.78;;;22.00;67.60;;;;;;5116975;28;20380;-70
2022/07/15 02:53:08;;;;;;;7.63;5.40;;;21.90;67.80;;;;;;5116883;28;20472;-75
2022/07/15 02:55:34;;;;;;;5.25;4.65;;;22.00;68.00;;;;;;5116774;28;20059;-74
2022/07/15 02:57:59;;;;;;;6.15;4.53;;;21.90;67.70;;;;;;5115544;28;20019;-75
2022/07/15 03:00:25;;;;;;;6.57;4.50;;;21.90;67.70;;;;;;5116804;28;20027;-72
2022/07/15 03:02:52;;;;;;;5.28;4.50;;;21.90;67.60;;;;;;5116656;28;20106;-75
2022/07/15 03:05:18;;;;;;;6.80;4.18;;;22.00;67.60;;;;;;5116738;28;20476;-76
2022/07/15 03:07:45;;;;;;;5.82;3.75;;;22.00;67.30;;;;;;5116549;27;20556;-77
2022/07/15 03:10:11;;;;;;;4.88;4.00;;;22.00;67.50;;;;;;5114880;28;20472;-75
2022/07/15 03:12:37;;;;;;;5.95;4.35;;;22.00;67.50;;;;;;5096162;28;20031;-76
2022/07/15 03:15:04;;;;;;;5.78;3.90;;;22.00;67.30;;;;;;5096121;28;20361;-75
2022/07/15 03:17:30;;;;;;;4.93;4.07;;;22.00;67.30;;;;;;5096098;28;20032;-72
2022/07/15 03:19:56;;;;;;;6.55;4.88;;;22.00;67.20;;;;;;5095841;28;20044;-71
2022/07/15 03:22:22;;;;;;;5.13;4.65;;;22.00;67.10;;;;;;5095829;28;20115;-76
2022/07/15 03:24:48;;;;;;;6.32;5.03;;;22.00;67.10;;;;;;5095837;28;20427;-74
2022/07/15 03:27:16;;;;;;;5.57;4.68;;;21.90;67.10;;;;;;5094557;28;20028;-75
2022/07/15 03:29:42;;;;;;;7.25;4.63;;;22.00;67.10;;;;;;5095873;28;20055;-71
2022/07/15 03:32:10;;;;;;;8.52;4.68;;;22.00;67.70;;;;;;5095778;28;20114;-73
2022/07/15 03:34:36;;;;;;;5.15;4.63;;;22.00;67.70;;;;;;5095719;28;20031;-72
2022/07/15 03:37:02;;;;;;;7.95;4.50;;;22.00;68.00;;;;;;5095660;28;20389;-73
2022/07/15 03:39:29;;;;;;;7.45;4.80;;;22.00;68.00;;;;;;5095616;28;20035;-69
2022/07/15 03:41:55;;;;;;;7.22;4.82;;;21.90;68.00;;;;;;5095609;28;20430;-73
2022/07/15 03:44:20;;;;;;;7.88;5.22;;;22.00;68.40;;;;;;5095493;28;20107;-74
2022/07/15 03:46:47;;;;;;;5.60;4.93;;;22.00;68.60;;;;;;5095534;28;20048;-75
2022/07/15 03:49:16;;;;;;;7.85;5.95;;;22.00;68.50;;;;;;5095512;28;20070;-70
2022/07/15 03:51:43;;;;;;;6.95;4.95;;;22.00;68.60;;;;;;5095429;28;20030;-75
2022/07/15 03:54:09;;;;;;;6.35;5.40;;;22.00;68.50;;;;;;5095404;28;20522;-71
2022/07/15 03:56:36;;;;;;;6.28;5.13;;;22.00;68.60;;;;;;5094554;28;20036;-69
2022/07/15 03:59:03;;;;;;;7.47;5.50;;;22.00;68.60;;;;;;5095765;28;20036;-70
2022/07/15 04:01:28;;;;;;;7.00;5.22;;;22.00;68.60;;;;;;5094423;28;20024;-70
2022/07/15 04:03:54;;;;;;;6.75;5.38;;;22.00;68.50;;;;;;5093799;28;20020;-75
2022/07/15 04:06:21;;;;;;;11.30;5.95;;;22.00;68.30;;;;;;5095182;28;20020;-75
2022/07/15 04:08:48;;;;;;;11.20;5.22;;;22.00;68.40;;;;;;5095114;28;20159;-76
2022/07/15 04:11:14;;;;;;;6.18;5.00;;;22.10;68.60;;;;;;5095271;28;20540;-71
2022/07/15 04:13:40;;;;;;;6.85;5.18;;;22.10;68.60;;;;;;5095036;28;20052;-73
2022/07/15 04:16:08;;;;;;;6.47;4.88;;;22.10;68.50;;;;;;5093665;28;20027;-72
2022/07/15 04:18:34;;;;;;;14.60;6.30;;;22.10;68.30;;;;;;5093612;28;20032;-77
2022/07/15 04:21:01;;;;;;;6.72;5.20;;;22.10;68.40;;;;;;5094550;28;20501;-73
2022/07/15 04:23:27;;;;;;;9.95;5.88;;;22.10;68.30;;;;;;5094664;28;20028;-73
2022/07/15 04:25:53;;;;;;;7.55;5.32;;;22.10;69.00;;;;;;5094662;28;20381;-72
2022/07/15 04:28:20;;;;;;;6.90;5.03;;;22.10;68.40;;;;;;5094646;28;20083;-72
2022/07/15 04:30:46;;;;;;;7.70;5.25;;;22.20;68.40;;;;;;5094563;28;20362;-76
2022/07/15 04:33:12;;;;;;;6.63;4.75;;;22.20;68.90;;;;;;5094533;28;20039;-72
2022/07/15 04:35:38;;;;;;;6.47;5.30;;;22.30;69.20;;;;;;5094455;28;20024;-76
2022/07/15 04:38:04;;;;;;;9.48;5.35;;;22.40;68.60;;;;;;5094468;28;20365;-70
2022/07/15 04:40:32;;;;;;;5.75;4.70;;;22.40;68.40;;;;;;5096265;28;20016;-73
2022/07/15 04:42:59;;;;;;;7.13;5.20;;;22.40;68.20;;;;;;5114581;28;20102;-74
2022/07/15 04:45:25;;;;;;;5.88;4.38;;;22.50;68.60;;;;;;5114718;28;20039;-76
2022/07/15 04:47:51;;;;;;;6.28;4.82;;;22.50;68.90;;;;;;5114667;28;20027;-73
2022/07/15 04:53:01;;;;;;;;;;;22.70;69.30;;;;;;5115036;28;20084;-73
2022/07/15 04:55:27;;;;;;;4.93;4.20;;;22.80;68.50;;;;;;5114464;28;20320;-76
2022/07/15 04:57:53;;;;;;;12.95;4.60;;;22.80;69.00;;;;;;5113161;28;20122;-73
2022/07/15 05:00:19;;;;;;;6.53;4.85;;;22.90;68.80;;;;;;5114453;28;20024;-75
2022/07/15 05:02:45;;;;;;;5.80;3.85;;;22.90;68.00;;;;;;5114346;28;20511;-73
2022/07/15 05:05:11;;;;;;;4.85;3.83;;;22.90;67.50;;;;;;5112937;28;20055;-73
2022/07/15 05:07:37;;;;;;;4.55;3.40;;;23.00;67.10;;;;;;5113988;28;20027;-73
2022/07/15 05:10:07;;;;;;;5.60;3.63;;;23.00;66.80;;;;;;5114346;28;20016;-72
2022/07/15 05:12:33;;;;;;;3.85;3.35;;;23.00;66.70;;;;;;5110806;28;20023;-75
2022/07/15 05:14:58;;;;;;;6.70;4.15;;;23.10;66.40;;;;;;5114160;28;20076;-75
2022/07/15 05:17:25;;;;;;;6.20;4.07;;;23.10;66.30;;;;;;5114161;28;20479;-73
2022/07/15 05:19:52;;;;;;;8.68;4.03;;;23.20;66.90;;;;;;5098436;28;20111;-71
2022/07/15 05:22:19;;;;;;;4.57;3.45;;;23.20;67.30;;;;;;5092393;28;20362;-74
2022/07/15 05:24:44;;;;;;;6.35;3.80;;;23.30;66.20;;;;;;5092251;28;20080;-74
2022/07/15 05:27:11;;;;;;;5.97;3.65;;;23.30;66.00;;;;;;5093601;28;20099;-75
2022/07/15 05:29:36;;;;;;;5.05;3.05;;;23.20;65.90;;;;;;5093501;28;20038;-75
2022/07/15 05:32:02;;;;;;;6.72;3.00;;;23.20;65.90;;;;;;5112364;27;20534;-74
2022/07/15 05:34:28;;;;;;;4.85;2.88;;;23.20;63.90;;;;;;5115217;27;20024;-74
2022/07/15 05:36:54;;;;;;;3.67;2.67;;;23.20;62.60;;;;;;5112278;28;20027;-73
2022/07/15 05:39:20;;;;;;;5.80;2.58;;;23.10;62.30;;;;;;5113702;28;20051;-74
2022/07/15 05:41:46;;;;;;;4.90;2.70;;;23.00;59.90;;;;;;5113083;28;20542;-75
2022/07/15 05:44:12;;;;;;;5.03;2.22;;;22.90;60.70;;;;;;5113504;28;20066;-74
2022/07/15 05:46:37;;;;;;;5.20;3.00;;;22.90;61.90;;;;;;5102241;28;20028;-75
2022/07/15 05:49:03;;;;;;;5.63;2.78;;;22.80;61.40;;;;;;5093087;28;20032;-72
2022/07/15 05:51:29;;;;;;;4.53;2.88;;;22.90;63.30;;;;;;5101805;28;20076;-72
2022/07/15 05:53:55;;;;;;;6.00;2.78;;;22.90;63.80;;;;;;5103814;28;20082;-72
2022/07/15 05:56:21;;;;;;;4.72;2.80;;;23.00;63.60;;;;;;5092973;28;20031;-75
2022/07/15 05:58:48;;;;;;;8.13;2.95;;;23.00;63.30;;;;;;5093076;28;20020;-75
2022/07/15 06:01:13;;;;;;;3.78;2.60;;;23.10;63.50;;;;;;5091775;28;20380;-73
2022/07/15 06:03:40;;;;;;;5.35;2.58;;;23.20;64.40;;;;;;5106454;28;20024;-74
2022/07/15 06:06:06;;;;;;;5.50;2.10;;;23.30;64.00;;;;;;5113541;28;20023;-74
2022/07/15 06:08:32;;;;;;;4.60;2.28;;;23.30;61.10;;;;;;5113612;28;20027;-71
2022/07/15 06:10:58;;;;;;;5.68;2.28;;;23.40;60.70;;;;;;5107113;28;20020;-74
2022/07/15 06:13:24;;;;;;;6.60;2.22;;;23.50;60.90;;;;;;5101655;28;20024;-74
2022/07/15 06:15:50;;;;;;;4.93;2.08;;;23.60;58.50;;;;;;5095838;28;20488;-72
2022/07/15 06:18:17;;;;;;;5.45;2.60;;;23.60;57.40;;;;;;5092625;28;20481;-75
2022/07/15 06:20:43;;;;;;;5.47;2.30;;;23.70;57.90;;;;;;5094611;28;20416;-72
2022/07/15 06:23:09;;;;;;;7.80;2.00;;;23.60;55.60;;;;;;5097009;28;20085;-73
2022/07/15 06:25:34;;;;;;;5.22;2.03;;;23.50;56.70;;;;;;5095653;28;20480;-72
2022/07/15 06:28:01;;;;;;;5.22;2.20;;;23.50;57.30;;;;;;5113959;28;20027;-75
2022/07/15 06:30:27;;;;;;;7.85;2.28;;;23.50;56.20;;;;;;5117309;28;20015;-74
2022/07/15 06:32:53;;;;;;;4.05;2.05;;;23.40;57.00;;;;;;5117250;28;20090;-75
2022/07/15 06:35:18;;;;;;;6.88;2.20;;;23.40;57.60;;;;;;5099379;28;20024;-75
2022/07/15 06:37:44;;;;;;;5.68;2.20;;;23.50;58.10;;;;;;5096762;28;20098;-73
2022/07/15 06:40:10;;;;;;;3.90;2.00;;;23.50;57.50;;;;;;5096762;28;20028;-74
2022/07/15 06:42:37;;;;;;;6.50;2.10;;;23.50;58.60;;;;;;5097142;27;20056;-76
2022/07/15 06:45:04;;;;;;;4.75;1.90;;;23.70;58.90;;;;;;5096584;28;20073;-73
2022/07/15 06:47:30;;;;;;;3.35;2.13;;;23.70;58.00;;;;;;5096582;28;20027;-73
2022/07/15 06:49:56;;;;;;;7.32;2.10;;;23.90;58.00;;;;;;5095472;28;20381;-74
2022/07/15 06:52:22;;;;;;;4.47;2.03;;;24.00;56.90;;;;;;5095240;28;20028;-74
2022/07/15 06:54:48;;;;;;;2.78;2.00;;;24.10;57.30;;;;;;5104194;28;20080;-73
2022/07/15 06:57:16;;;;;;;4.85;2.17;;;24.20;57.60;;;;;;5103562;28;20090;-75
2022/07/15 06:59:43;;;;;;;3.63;1.90;;;24.30;57.50;;;;;;5096398;28;20059;-75
2022/07/15 07:02:09;;;;;;;3.50;1.90;;;24.40;57.70;;;;;;5096047;28;20110;-74
2022/07/15 07:04:34;;;;;;;4.47;1.95;;;24.50;57.40;;;;;;5094800;28;20119;-74
2022/07/15 07:07:00;;;;;;;1.90;1.70;;;24.60;57.20;;;;;;5112166;28;20080;-73
2022/07/15 07:09:26;;;;;;;3.22;2.00;;;24.70;55.90;;;;;;5096210;28;20020;-73
2022/07/15 07:11:52;;;;;;;3.72;2.10;;;24.70;56.70;;;;;;5105717;27;20023;-73
2022/07/15 07:14:19;;;;;;;8.50;2.22;;;24.70;55.80;;;;;;5116430;28;20019;-76
2022/07/15 07:16:46;;;;;;;4.32;1.88;;;24.70;54.50;;;;;;5102105;28;20475;-73
2022/07/15 07:19:12;;;;;;;4.72;1.85;;;24.70;55.10;;;;;;5096103;28;20031;-75
2022/07/15 07:21:39;;;;;;;3.38;1.67;;;24.60;54.30;;;;;;5094607;28;20059;-74
2022/07/15 07:24:07;;;;;;;2.92;1.67;;;24.50;54.90;;;;;;5095642;28;20385;-80
2022/07/15 07:26:33;;;;;;;4.45;1.92;;;24.50;54.00;;;;;;5095827;28;20432;-75
2022/07/15 07:28:59;;;;;;;6.60;1.80;;;24.40;53.70;;;;;;5095905;28;20119;-71
2022/07/15 07:31:26;;;;;;;4.35;1.90;;;24.40;53.50;;;;;;5094282;28;20122;-73
2022/07/15 07:33:55;;;;;;;5.45;1.70;;;24.40;52.80;;;;;;5094359;28;20483;-73
2022/07/15 07:36:21;;;;;;;2.53;1.80;;;24.40;52.90;;;;;;5095515;28;20029;-74
2022/07/15 07:38:46;;;;;;;5.43;1.92;;;24.30;52.60;;;;;;5095574;28;20031;-75
2022/07/15 07:41:12;;;;;;;4.88;2.17;;;24.30;51.50;;;;;;5095908;27;20039;-70
2022/07/15 07:43:38;;;;;;;5.10;1.63;;;24.30;52.00;;;;;;5095601;28;20028;-73
2022/07/15 07:46:05;;;;;;;5.65;2.05;;;24.30;52.90;;;;;;5095581;28;20022;-73
2022/07/15 07:48:30;;;;;;;4.93;2.22;;;24.40;52.30;;;;;;5094385;28;20024;-73
2022/07/15 07:50:57;;;;;;;6.30;2.17;;;24.50;52.50;;;;;;5094303;28;20531;-74
2022/07/15 07:53:23;;;;;;;2.15;1.33;;;24.50;51.50;;;;;;5095434;28;20103;-73
2022/07/15 07:55:50;;;;;;;4.72;1.80;;;24.60;51.10;;;;;;5095335;28;20047;-76
2022/07/15 07:58:17;;;;;;;6.82;2.25;;;24.60;51.10;;;;;;5095313;28;20099;-73
2022/07/15 08:00:44;;;;;;;3.38;1.95;;;24.60;51.00;;;;;;5095236;28;20480;-74
2022/07/15 08:03:10;;;;;;;6.50;1.80;;;24.60;51.30;;;;;;5095197;28;20478;-73
2022/07/15 08:05:36;;;;;;;4.95;2.30;;;24.60;51.20;;;;;;5095192;28;20016;-75
2022/07/15 08:08:16;;;;;;;7.15;2.72;;;24.60;51.00;;;;;;5095095;28;20020;-72
2022/07/15 08:10:47;;;;;;;10.90;2.60;;;24.60;50.10;;;;;;5095108;28;20023;-74
2022/07/15 08:13:12;;;;;;;16.88;2.47;;;24.60;50.00;;;;;;5111567;28;20081;-74
2022/07/15 08:15:39;;;;;;;12.32;2.05;;;24.60;49.00;;;;;;5099891;28;20031;-75
2022/07/15 08:18:05;;;;;;;7.57;1.90;;;24.60;49.20;;;;;;5094888;28;20377;-76
2022/07/15 08:20:31;;;;;;;10.13;2.72;;;24.70;49.60;;;;;;5094624;28;20044;-74
2022/07/15 08:23:01;;;;;;;12.13;2.50;;;24.70;49.20;;;;;;5094796;28;20557;-73
2022/07/15 08:25:32;;;;;;;5.07;2.22;;;24.80;48.60;;;;;;5094687;28;20055;-74
2022/07/15 08:27:59;;;;;;;9.52;2.72;;;24.80;47.40;;;;;;5094732;28;20016;-71
2022/07/15 08:30:29;;;;;;;7.03;3.20;;;24.90;47.80;;;;;;5094659;28;20023;-72
2022/07/15 08:32:57;;;;;;;7.38;2.80;;;24.90;47.60;;;;;;5093137;28;20032;-74
2022/07/15 08:35:23;;;;;;;6.57;2.85;;;25.00;48.10;;;;;;5094295;28;20028;-72
2022/07/15 08:37:49;;;;;;;7.32;2.60;;;25.00;48.00;;;;;;5094295;28;20047;-71
2022/07/15 08:40:15;;;;;;;4.65;2.45;;;25.00;47.70;;;;;;5094509;28;20058;-72
2022/07/15 08:42:43;;;;;;;7.13;2.78;;;25.10;48.30;;;;;;5092616;28;20040;-72
2022/07/15 08:45:10;;;;;;;5.30;2.95;;;25.20;48.20;;;;;;5094309;28;20031;-74
2022/07/15 08:47:39;;;;;;;5.82;2.45;;;25.20;48.00;;;;;;5094369;28;20024;-70
2022/07/15 08:50:08;;;;;;;6.40;2.78;;;25.20;48.00;;;;;;5094324;28;20035;-73
2022/07/15 08:52:36;;;;;;;5.13;2.55;;;25.30;47.90;;;;;;5094144;28;20146;-73
2022/07/15 08:55:02;;;;;;;6.18;2.53;;;25.30;47.30;;;;;;5092809;28;20035;-73
2022/07/15 08:57:29;;;;;;;5.15;2.55;;;25.40;46.90;;;;;;5094222;28;20020;-72
2022/07/15 08:59:55;;;;;;;5.00;2.65;;;25.40;46.60;;;;;;5094066;28;20025;-72
2022/07/15 09:02:22;;;;;;;6.78;3.03;;;25.40;47.10;;;;;;5094114;28;20035;-73
2022/07/15 09:05:21;;;;;;;6.93;2.80;;;25.40;46.90;;;;;;5092634;28;20042;-70
2022/07/15 09:07:55;;;;;;;9.20;3.75;;;25.50;47.60;;;;;;5094032;28;20373;-73
2022/07/15 09:10:23;;;;;;;9.40;3.42;;;25.50;46.60;;;;;;5093863;28;20023;-75
2022/07/15 09:12:51;;;;;;;10.35;3.15;;;25.50;47.00;;;;;;5094055;28;20020;-72
2022/07/15 09:15:34;;;;;;;8.50;2.70;;;25.60;47.10;;;;;;5093871;28;20020;-71
2022/07/15 09:18:10;;;;;;;6.00;2.63;;;25.60;47.80;;;;;;5093843;28;20020;-73
2022/07/15 09:20:36;;;;;;;5.97;2.50;;;25.70;47.10;;;;;;5093507;28;20101;-72
2022/07/15 09:23:03;;;;;;;5.03;2.97;;;25.80;47.10;;;;;;5093663;28;20024;-73
2022/07/15 09:25:34;;;;;;;8.15;3.00;;;25.90;47.00;;;;;;5093635;28;20496;-73
2022/07/15 09:28:05;;;;;;;5.75;2.78;;;26.00;46.20;;;;;;5093716;28;20024;-71
2022/07/15 09:33:36;;;;;;;6.22;3.17;;;26.10;46.40;;;;;;5093427;28;20119;-70
2022/07/15 09:36:06;;;;;;;6.43;2.95;;;26.20;46.60;;;;;;5092326;28;20110;-74
2022/07/15 09:38:33;;;;;;;6.07;2.75;;;26.20;45.50;;;;;;5093479;28;20421;-74
2022/07/15 09:41:01;;;;;;;5.30;3.05;;;26.20;45.90;;;;;;5093554;28;20028;-71
2022/07/15 09:43:28;;;;;;;8.00;3.20;;;26.30;45.40;;;;;;5092047;28;20483;-74
2022/07/15 09:46:01;;;;;;;4.10;2.92;;;26.30;45.20;;;;;;5093423;28;20064;-71
2022/07/15 09:48:28;;;;;;;5.90;2.55;;;26.30;45.70;;;;;;5093507;28;20020;-74
2022/07/15 09:51:00;;;;;;;10.48;2.60;;;26.30;45.30;;;;;;5093296;28;20028;-73
2022/07/15 09:53:27;;;;;;;12.02;3.17;;;26.30;44.90;;;;;;5092773;28;20047;-73
2022/07/15 09:55:53;;;;;;;7.80;3.03;;;26.40;44.30;;;;;;5092716;28;20063;-72
2022/07/15 09:58:21;;;;;;;3.65;2.28;;;26.40;43.60;;;;;;5093208;28;20357;-71
2022/07/15 10:00:47;;;;;;;6.65;2.53;;;26.40;43.40;;;;;;5093152;28;20016;-74
2022/07/15 10:03:13;;;;;;;4.57;2.35;;;26.40;43.20;;;;;;5092926;28;20129;-73
2022/07/15 10:05:39;;;;;;;4.72;2.50;;;26.40;42.60;;;;;;5093100;28;20020;-70
2022/07/15 10:08:09;;;;;;;3.25;2.47;;;26.40;42.40;;;;;;5091648;28;20024;-70
2022/07/15 10:10:37;;;;;;;6.20;2.42;;;26.50;42.30;;;;;;5093100;28;20099;-76
2022/07/15 10:13:15;;;;;;;4.72;2.17;;;26.50;43.10;;;;;;5106532;28;20378;-71
2022/07/15 10:15:50;;;;;;;5.72;1.95;;;26.50;42.50;;;;;;5111852;28;20028;-73
2022/07/15 10:18:22;;;;;;;6.88;2.80;;;26.60;42.00;;;;;;5113337;28;20052;-74
2022/07/15 10:21:32;;;;;;;3.97;2.40;;;26.60;41.90;;;;;;5100803;28;20531;-72
2022/07/15 10:24:36;;;;;;;3.13;2.20;;;26.70;42.10;;;;;;5033697;28;20044;-78
2022/07/15 10:27:33;;;;;;;4.68;2.70;;;26.70;42.20;;;;;;4991304;28;20039;-74
2022/07/15 10:30:04;;;;;;;4.50;2.28;;;26.80;41.60;;;;;;5050601;28;20030;-76
2022/07/15 10:33:05;;;;;;;3.53;2.05;;;26.80;41.00;;;;;;5050590;28;20506;-76
2022/07/15 10:36:02;;;;;;;4.30;2.20;;;26.80;41.70;;;;;;5050495;28;20053;-74
2022/07/15 10:38:38;;;;;;;6.20;2.35;;;26.90;41.90;;;;;;5050427;28;20036;-71
2022/07/15 10:41:04;;;;;;;7.22;2.80;;;26.90;41.50;;;;;;5051507;28;20037;-75
2022/07/15 10:43:50;;;;;;;6.93;2.40;;;27.00;40.60;;;;;;5050448;28;20025;-72
2022/07/15 10:46:16;;;;;;;8.43;2.45;;;27.00;40.40;;;;;;5050410;28;20502;-75
2022/07/15 10:48:49;;;;;;;3.08;2.40;;;27.10;40.10;;;;;;5050505;28;20037;-73
2022/07/15 10:51:36;;;;;;;3.25;2.03;;;27.10;40.10;;;;;;5050250;28;20026;-70
2022/07/15 10:54:29;;;;;;;3.05;2.28;;;27.20;40.10;;;;;;5050194;28;20557;-75
2022/07/15 10:56:55;;;;;;;5.78;2.15;;;27.20;40.00;;;;;;5050267;28;20061;-71
2022/07/15 10:59:23;;;;;;;5.38;1.92;;;27.30;40.40;;;;;;5067891;28;20070;-73
2022/07/15 11:02:01;;;;;;;8.38;2.55;;;27.40;39.00;;;;;;5092594;28;20409;-73
2022/07/15 11:04:33;;;;;;;4.50;2.50;;;27.50;39.10;;;;;;5092567;28;20020;-71
2022/07/15 11:07:19;;;;;;;6.47;2.10;;;27.60;38.60;;;;;;5095867;28;20522;-71
2022/07/15 11:09:52;;;;;;;5.38;3.03;;;27.60;39.40;;;;;;5096105;28;20032;-75
2022/07/15 11:12:21;;;;;;;9.73;2.23;;;27.70;38.50;;;;;;5103177;28;20020;-73
2022/07/15 11:14:53;;;;;;;4.13;2.20;;;27.70;38.60;;;;;;5116555;28;20034;-75
2022/07/15 11:17:40;;;;;;;5.78;2.70;;;27.80;38.60;;;;;;5116349;28;20081;-72
2022/07/15 11:20:11;;;;;;;4.80;2.35;;;27.90;38.50;;;;;;5116329;28;20051;-75
2022/07/15 11:22:41;;;;;;;14.50;2.83;;;27.90;37.50;;;;;;5116483;28;20024;-73
2022/07/15 11:25:25;;;;;;;11.43;2.65;;;27.90;37.40;;;;;;5115048;28;20365;-73
2022/07/15 11:28:13;;;;;;;3.78;2.45;;;27.90;36.70;;;;;;5116301;28;20023;-76
2022/07/15 11:30:57;;;;;;;4.07;2.60;;;28.00;37.10;;;;;;5116107;28;20019;-72
2022/07/15 11:33:27;;;;;;;;;;;27.90;37.20;;;;;;5116594;28;20027;-76
2022/07/15 11:35:55;;;;;;;6.53;2.65;;;27.90;38.60;;;;;;5116154;28;19903;-72
2022/07/15 11:38:24;;;;;;;4.70;2.13;;;28.00;37.50;;;;;;5116278;28;20050;-75
2022/07/15 11:46:25;;;;;;;5.63;2.50;;;28.00;36.30;;;;;;5116158;28;20038;-75
2022/07/15 11:48:52;;;;;;;4.50;2.47;;;28.00;36.80;;;;;;5115805;28;20042;-74
2022/07/15 11:51:25;;;;;;;5.72;2.88;;;28.10;37.20;;;;;;5115740;28;20055;-74
2022/07/15 11:53:51;;;;;;;6.57;3.30;;;28.10;36.40;;;;;;5114473;28;20047;-74
2022/07/15 11:56:17;;;;;;;3.00;2.17;;;28.10;36.30;;;;;;5115644;28;20120;-75
2022/07/15 11:58:45;;;;;;;12.57;2.88;;;28.20;36.70;;;;;;5115486;28;20112;-73
2022/07/15 12:01:17;;;;;;;3.33;2.40;;;28.20;36.70;;;;;;5115626;28;20027;-71
2022/07/15 12:03:45;;;;;;;4.63;2.40;;;28.30;36.70;;;;;;5115452;28;20027;-77
2022/07/15 12:06:16;;;;;;;5.05;2.42;;;28.40;36.30;;;;;;5115462;28;20023;-75
2022/07/15 12:08:55;;;;;;;5.20;2.53;;;28.50;35.90;;;;;;5110753;28;20473;-73
2022/07/15 12:11:34;;;;;;;7.22;2.25;;;28.70;36.20;;;;;;5095308;28;20039;-74
2022/07/15 12:14:04;;;;;;;3.75;2.58;;;28.80;35.30;;;;;;5093594;28;20032;-74
2022/07/15 12:16:42;;;;;;;4.25;2.33;;;29.00;34.90;;;;;;5094149;28;20032;-73
2022/07/15 12:19:29;;;;;;;6.75;2.70;;;29.10;34.50;;;;;;5093639;28;20035;-74
2022/07/15 12:22:00;;;;;;;3.22;1.80;;;29.20;33.90;;;;;;5094733;28;20071;-76
2022/07/15 12:24:50;;;;;;;4.28;2.20;;;29.20;32.90;;;;;;5094683;28;20031;-73
2022/07/15 12:27:16;;;;;;;3.60;1.85;;;29.20;32.70;;;;;;5094771;28;20025;-72
2022/07/15 12:29:43;;;;;;;4.45;2.38;;;29.20;32.00;;;;;;5094615;28;20103;-73
2022/07/15 12:32:14;;;;;;;4.78;2.15;;;29.20;32.50;;;;;;5094593;28;20078;-75
2022/07/15 12:34:53;;;;;;;6.30;2.65;;;29.30;33.30;;;;;;5094554;28;20020;-74
2022/07/15 12:37:27;;;;;;;3.25;2.15;;;29.20;33.30;;;;;;5094536;28;20028;-73
2022/07/15 12:39:58;;;;;;;4.90;2.20;;;29.20;34.20;;;;;;5094517;28;20048;-73
2022/07/15 12:42:32;;;;;;;7.38;2.38;;;29.20;32.30;;;;;;5104231;28;20015;-73
2022/07/15 12:45:11;;;;;;;;;;;29.20;31.10;;;;;;5115044;27;20027;-70
2022/07/15 12:47:55;;;;;;;4.32;2.20;;;29.20;33.60;;;;;;5114874;28;19904;-75
2022/07/15 12:50:22;;;;;;;4.53;1.88;;;29.20;32.30;;;;;;5113411;28;20024;-74
2022/07/15 12:52:47;;;;;;;4.10;2.20;;;29.20;31.20;;;;;;5114357;28;20084;-73
2022/07/15 12:55:19;;;;;;;3.78;1.80;;;29.20;31.60;;;;;;5114557;28;20039;-76
2022/07/15 12:57:45;;;;;;;4.20;2.13;;;29.20;31.20;;;;;;5113310;28;20379;-73
2022/07/15 13:00:23;;;;;;;2.78;1.77;;;29.20;31.70;;;;;;5113246;28;20077;-72
2022/07/15 13:03:07;;;;;;;8.07;2.72;;;29.20;31.80;;;;;;5113189;28;20058;-70
2022/07/15 13:05:39;;;;;;;3.03;2.10;;;29.10;30.90;;;;;;5114359;28;20047;-73
2022/07/15 13:08:16;;;;;;;4.13;2.05;;;29.10;30.50;;;;;;5103026;28;20487;-73